< < Back
Terminal Aerodrome Forecast


Current Version              Previous Versions:   1  2  3  4  5  6  7  8  9  

Terminal Aerodrome Forecast

730
FTUS42 KFFC 280024 AAA
TAFCSG
TAF AMD
KCSG 280024Z 2800/2824 25009KT P6SM VCSH BKN060
     FM280200 25005KT P6SM SCT250
     FM281500 25010G15KT P6SM FEW040
     FM281800 24012G18KT P6SM VCSH BKN050=

Latest METAR

265
SAUS70 KWBC 281400
MTRCSG
METAR KCSG 281351Z 30010KT 10SM CLR 28/21 A3006 RMK AO2 SLP174
T02780206


USA.gov is the U.S. government's official web portal to all federal, state and local government web resources and services.